Time;durP1;ratioP1;P1;durP2;ratioP2;P2;SDS_P1;SDS_P2;PMS_P1;PMS_P2;Temp;Humidity;BMP_temperature;BMP_pressure;BME280_temperature;BME280_humidity;BME280_pressure;Samples;Min_cycle;Max_cycle;Signal;HPM_P1;HPM_P2
2022/01/11 00:01:00;;;;;;;35.77;21.47;;;-0.10;99.90;;;;;;2623515;47;20425;-83
2022/01/11 00:03:26;;;;;;;41.17;22.77;;;-0.20;99.90;;;;;;2625358;39;20795;-82
2022/01/11 00:08:19;;;;;;;32.90;20.57;;;-0.40;99.90;;;;;;2625680;39;20985;-81
2022/01/11 00:10:51;;;;;;;30.87;20.80;;;-0.40;99.90;;;;;;2623819;47;20375;-82
2022/01/11 00:13:18;;;;;;;32.80;20.73;;;-0.50;99.90;;;;;;2623997;46;20384;-81
2022/01/11 00:15:45;;;;;;;31.90;21.07;;;-0.50;99.90;;;;;;2623961;46;20366;-82
2022/01/11 00:18:11;;;;;;;34.77;21.47;;;-0.50;99.90;;;;;;2623748;46;20946;-82
2022/01/11 00:20:38;;;;;;;31.57;20.43;;;-0.50;99.90;;;;;;2623511;47;20378;-81
2022/01/11 00:25:36;;;;;;;31.00;19.90;;;-0.40;99.90;;;;;;2623499;47;20367;-83
2022/01/11 00:28:04;;;;;;;36.07;19.90;;;-0.60;99.90;;;;;;2623499;54;20380;-83
2022/01/11 00:30:35;;;;;;;38.43;20.30;;;-0.50;99.90;;;;;;2624296;47;20368;-82
2022/01/11 00:33:06;;;;;;;34.00;18.50;;;-0.50;99.90;;;;;;2623393;46;20905;-81
2022/01/11 00:35:40;;;;;;;33.47;19.47;;;-0.60;99.90;;;;;;2623528;54;20386;-81
2022/01/11 00:38:09;;;;;;;36.73;19.80;;;-0.50;99.90;;;;;;2623466;47;20948;-81
2022/01/11 00:40:35;;;;;;;32.67;18.47;;;-0.40;99.90;;;;;;2623480;47;20375;-80
2022/01/11 00:43:04;;;;;;;41.43;21.47;;;-0.40;99.90;;;;;;2624133;54;20492;-81
2022/01/11 00:45:30;;;;;;;32.67;18.03;;;-0.50;99.90;;;;;;2624012;31;20958;-81
2022/01/11 00:47:56;;;;;;;34.40;19.37;;;-0.60;99.90;;;;;;2623441;47;20439;-82
2022/01/11 00:50:23;;;;;;;30.73;19.27;;;-0.60;99.90;;;;;;2623501;47;20387;-82
2022/01/11 00:52:49;;;;;;;33.17;20.47;;;-0.70;99.90;;;;;;2623628;54;20383;-81
2022/01/11 00:55:17;;;;;;;30.03;18.80;;;-0.60;99.90;;;;;;2623030;47;20423;-82
2022/01/11 00:57:43;;;;;;;29.30;18.03;;;-0.50;99.90;;;;;;2623522;47;20386;-83
2022/01/11 01:00:11;;;;;;;40.83;18.97;;;-0.80;99.90;;;;;;2623617;54;20501;-82
2022/01/11 01:02:41;;;;;;;32.30;19.47;;;-0.70;99.90;;;;;;2623555;46;20383;-82
2022/01/11 01:05:08;;;;;;;35.47;17.33;;;-0.60;99.90;;;;;;2623869;54;20403;-81
2022/01/11 01:07:35;;;;;;;30.97;18.23;;;-0.70;99.90;;;;;;2624040;47;20377;-82
2022/01/11 01:10:06;;;;;;;27.60;18.23;;;-0.80;99.90;;;;;;2624759;39;20869;-81
2022/01/11 01:12:37;;;;;;;31.70;19.00;;;-0.80;99.90;;;;;;2623868;47;20428;-80
2022/01/11 01:15:04;;;;;;;30.60;18.77;;;-0.70;99.90;;;;;;2623425;54;20962;-82
2022/01/11 01:17:31;;;;;;;33.90;20.13;;;-0.70;99.90;;;;;;2623564;47;20356;-82
2022/01/11 01:19:57;;;;;;;30.70;18.77;;;-0.70;99.90;;;;;;2623329;47;20933;-81
2022/01/11 01:22:23;;;;;;;31.57;17.23;;;-0.70;99.90;;;;;;2623396;54;20410;-82
2022/01/11 01:24:49;;;;;;;32.00;19.43;;;-0.60;99.90;;;;;;2623644;47;20367;-82
2022/01/11 01:27:15;;;;;;;40.73;19.10;;;-0.80;99.90;;;;;;2623475;47;20899;-81
2022/01/11 01:29:42;;;;;;;33.30;19.17;;;-0.90;99.90;;;;;;2623817;47;20142;-82
2022/01/11 01:32:08;;;;;;;34.10;19.57;;;-0.80;99.90;;;;;;2623292;47;20378;-81
2022/01/11 01:34:34;;;;;;;29.50;19.07;;;-0.80;99.90;;;;;;2623344;47;20347;-82
2022/01/11 01:37:00;;;;;;;29.00;18.50;;;-0.80;99.90;;;;;;2623760;47;20385;-80
2022/01/11 01:39:27;;;;;;;33.43;20.03;;;-0.80;99.90;;;;;;2623604;47;20387;-81
2022/01/11 01:41:53;;;;;;;30.47;18.37;;;-0.90;99.90;;;;;;2623554;54;20525;-80
2022/01/11 01:44:19;;;;;;;29.37;19.33;;;-0.80;99.90;;;;;;2623079;47;20382;-81
2022/01/11 01:46:46;;;;;;;29.27;18.00;;;-0.80;99.90;;;;;;2623347;46;20359;-80
2022/01/11 01:49:17;;;;;;;28.50;18.23;;;-0.90;99.90;;;;;;2623317;47;20382;-81
2022/01/11 01:51:44;;;;;;;21.07;16.90;;;-1.10;99.90;;;;;;2624040;39;20823;-82
2022/01/11 01:54:11;;;;;;;30.33;17.87;;;-1.00;99.90;;;;;;2623141;47;20430;-80
2022/01/11 01:56:38;;;;;;;22.90;17.37;;;-1.00;99.90;;;;;;2622866;47;20423;-82
2022/01/11 01:59:04;;;;;;;30.40;16.60;;;-1.30;99.90;;;;;;2623189;39;20810;-82
2022/01/11 02:01:35;;;;;;;26.87;17.83;;;-1.40;99.90;;;;;;2622702;47;20389;-82
2022/01/11 02:04:01;;;;;;;34.03;20.93;;;-1.40;99.90;;;;;;2622542;39;21110;-81
2022/01/11 02:06:27;;;;;;;32.53;18.37;;;-1.10;99.90;;;;;;2622219;47;20379;-81
2022/01/11 02:08:52;;;;;;;27.70;16.37;;;-0.90;99.90;;;;;;2622580;47;20417;-81
2022/01/11 02:11:21;;;;;;;31.10;17.90;;;-0.80;99.90;;;;;;2622420;54;20150;-81
2022/01/11 02:13:49;;;;;;;27.27;16.80;;;-0.80;99.90;;;;;;2622444;47;20362;-81
2022/01/11 02:16:20;;;;;;;26.80;17.10;;;-0.70;99.90;;;;;;2624476;39;20880;-82
2022/01/11 02:18:46;;;;;;;26.73;15.73;;;-1.00;99.90;;;;;;2622654;47;20382;-81
2022/01/11 02:21:17;;;;;;;28.23;17.50;;;-0.90;99.90;;;;;;2622330;47;20465;-81
2022/01/11 02:23:43;;;;;;;23.93;16.70;;;-1.10;99.90;;;;;;2622603;47;20424;-82
2022/01/11 02:26:10;;;;;;;28.27;16.40;;;-1.20;99.90;;;;;;2622937;47;20427;-81
2022/01/11 02:28:40;;;;;;;19.57;16.23;;;-1.00;99.90;;;;;;2622873;47;20934;-82
2022/01/11 02:31:12;;;;;;;24.33;16.10;;;-1.40;99.90;;;;;;2622832;47;20373;-82
2022/01/11 02:33:44;;;;;;;25.47;15.80;;;-1.60;99.90;;;;;;2622680;47;20388;-81
2022/01/11 02:36:27;;;;;;;24.10;14.50;;;-1.40;99.90;;;;;;2622228;47;20362;-81
2022/01/11 02:38:55;;;;;;;30.40;14.80;;;-1.00;99.90;;;;;;2622443;47;20424;-80
2022/01/11 02:41:22;;;;;;;23.87;17.40;;;-0.90;99.90;;;;;;2622671;47;20419;-81
2022/01/11 02:43:49;;;;;;;26.70;15.00;;;-1.20;99.90;;;;;;2622486;47;20386;-81
2022/01/11 02:46:21;;;;;;;21.80;16.20;;;-1.30;99.90;;;;;;2623069;39;20759;-81
2022/01/11 02:48:50;;;;;;;24.70;16.17;;;-1.20;99.90;;;;;;2622198;47;20394;-82
2022/01/11 02:51:17;;;;;;;27.57;17.10;;;-1.20;99.90;;;;;;2622743;39;20915;-81
2022/01/11 02:53:49;;;;;;;30.20;16.17;;;-1.20;99.90;;;;;;2622974;47;20385;-82
2022/01/11 02:56:17;;;;;;;23.63;15.90;;;-1.30;99.90;;;;;;2622856;47;20465;-82
2022/01/11 02:58:43;;;;;;;23.10;15.77;;;-1.30;99.90;;;;;;2622821;47;20540;-80
2022/01/11 03:01:10;;;;;;;24.50;16.10;;;-1.20;99.90;;;;;;2622740;47;20391;-82
2022/01/11 03:03:37;;;;;;;22.73;14.60;;;-1.30;99.90;;;;;;2622557;39;20857;-82
2022/01/11 03:06:05;;;;;;;20.73;14.17;;;-1.20;99.90;;;;;;2622643;54;21313;-81
2022/01/11 03:08:42;;;;;;;25.23;14.07;;;-1.20;99.90;;;;;;2622997;47;20378;-81
2022/01/11 03:11:13;;;;;;;41.10;16.17;;;-1.30;99.90;;;;;;2623877;47;20382;-82
2022/01/11 03:13:41;;;;;;;19.83;14.43;;;-1.30;99.90;;;;;;2623299;47;20497;-80
2022/01/11 03:16:08;;;;;;;22.27;14.33;;;-1.30;99.90;;;;;;2623997;47;20371;-82
2022/01/11 03:18:34;;;;;;;27.70;15.43;;;-1.40;99.90;;;;;;2623974;47;20367;-82
2022/01/11 03:21:01;;;;;;;25.87;15.47;;;-1.20;99.90;;;;;;2623886;46;20375;-82
2022/01/11 03:23:27;;;;;;;23.67;14.93;;;-1.10;99.90;;;;;;2623379;54;20414;-81
2022/01/11 03:25:53;;;;;;;22.50;15.20;;;-1.30;99.90;;;;;;2623633;47;20413;-82
2022/01/11 03:28:22;;;;;;;20.60;13.57;;;-1.30;99.90;;;;;;2623728;47;20379;-82
2022/01/11 03:30:51;;;;;;;20.67;14.10;;;-1.40;99.90;;;;;;2624005;39;20858;-81
2022/01/11 03:33:17;;;;;;;31.50;14.63;;;-1.20;99.90;;;;;;2623819;47;20371;-81
2022/01/11 03:35:47;;;;;;;28.73;14.20;;;-1.30;99.90;;;;;;2624101;47;20379;-82
2022/01/11 03:38:15;;;;;;;22.40;14.07;;;-1.20;99.90;;;;;;2624165;46;20425;-82
2022/01/11 03:40:44;;;;;;;24.10;15.30;;;-1.40;99.90;;;;;;2624451;39;21200;-81
2022/01/11 03:43:10;;;;;;;18.10;12.60;;;-1.60;99.90;;;;;;2624318;47;20378;-81
2022/01/11 03:45:37;;;;;;;18.77;14.20;;;-1.50;99.90;;;;;;2624174;46;20453;-82
2022/01/11 03:48:08;;;;;;;24.10;15.20;;;-1.70;99.90;;;;;;2623905;47;20390;-82
2022/01/11 03:51:01;;;;;;;19.80;13.60;;;-1.90;99.90;;;;;;2623955;47;20469;-82
2022/01/11 03:53:53;;;;;;;21.00;14.13;;;-1.70;99.90;;;;;;2624656;46;20394;-83
2022/01/11 03:56:21;;;;;;;19.30;13.00;;;-1.40;99.90;;;;;;2624342;46;20384;-82
2022/01/11 03:58:53;;;;;;;21.93;16.00;;;-1.70;99.90;;;;;;2624158;46;20398;-82
2022/01/11 04:01:19;;;;;;;21.00;13.70;;;-1.90;99.90;;;;;;2623986;47;20404;-83
2022/01/11 04:03:47;;;;;;;18.00;13.23;;;-2.00;99.90;;;;;;2623997;54;20369;-81
2022/01/11 04:06:16;;;;;;;22.10;13.50;;;-2.00;99.90;;;;;;2624832;54;20447;-81
2022/01/11 04:08:44;;;;;;;25.80;14.43;;;-1.80;99.90;;;;;;2624567;46;20397;-82
2022/01/11 04:11:11;;;;;;;22.87;14.30;;;-1.70;99.90;;;;;;2624658;47;20413;-83
2022/01/11 04:13:39;;;;;;;25.60;16.17;;;-1.40;99.90;;;;;;2624611;47;20369;-82
2022/01/11 04:16:05;;;;;;;21.37;14.60;;;-1.30;99.90;;;;;;2624584;39;20822;-83
2022/01/11 04:18:31;;;;;;;19.53;15.90;;;-1.00;99.90;;;;;;2624418;54;20391;-81
2022/01/11 04:20:57;;;;;;;20.77;15.30;;;-1.10;99.90;;;;;;2624769;39;20750;-80
2022/01/11 04:23:26;;;;;;;22.67;15.97;;;-1.10;99.90;;;;;;2625304;39;20875;-81
2022/01/11 04:25:52;;;;;;;18.80;15.33;;;-1.10;99.90;;;;;;2624721;54;20415;-81
2022/01/11 04:28:18;;;;;;;21.33;16.33;;;-1.50;99.90;;;;;;2624283;47;20390;-82
2022/01/11 04:30:45;;;;;;;23.83;17.13;;;-1.60;99.90;;;;;;2624056;47;20339;-81
2022/01/11 04:33:13;;;;;;;21.97;15.60;;;-1.60;99.90;;;;;;2624150;46;20417;-82
2022/01/11 04:35:39;;;;;;;27.20;16.10;;;-1.60;99.90;;;;;;2624541;47;20378;-82
2022/01/11 04:38:05;;;;;;;17.97;15.90;;;-1.40;99.90;;;;;;2624536;46;20903;-82
2022/01/11 04:40:31;;;;;;;35.40;19.67;;;-1.30;99.90;;;;;;2624817;47;20455;-82
2022/01/11 04:42:57;;;;;;;33.73;19.17;;;-1.50;99.90;;;;;;2625066;47;20379;-82
2022/01/11 04:45:23;;;;;;;31.40;20.40;;;-1.30;99.90;;;;;;2624330;47;20357;-83
2022/01/11 04:47:56;;;;;;;37.43;18.43;;;-1.00;99.90;;;;;;2624441;46;20994;-82
2022/01/11 04:50:27;;;;;;;35.10;17.23;;;-1.30;99.90;;;;;;2625442;47;20390;-82
2022/01/11 04:52:54;;;;;;;29.77;19.07;;;-1.50;99.90;;;;;;2625503;47;20414;-82
2022/01/11 04:55:21;;;;;;;34.40;17.60;;;-1.40;99.90;;;;;;2624607;46;20376;-82
2022/01/11 04:57:48;;;;;;;26.27;16.70;;;-1.40;99.90;;;;;;2624781;47;20365;-82
2022/01/11 05:00:15;;;;;;;25.53;18.50;;;-1.20;99.90;;;;;;2624476;47;20380;-83
2022/01/11 05:02:42;;;;;;;31.83;18.37;;;-1.20;99.90;;;;;;2624581;47;20388;-82
2022/01/11 05:05:34;;;;;;;29.87;19.10;;;-1.00;99.90;;;;;;2624773;46;20447;-82
2022/01/11 05:08:02;;;;;;;23.50;16.63;;;-1.10;99.90;;;;;;2624429;47;20426;-82
2022/01/11 05:10:30;;;;;;;23.83;17.07;;;-0.90;99.90;;;;;;2624958;46;20408;-83
2022/01/11 05:12:56;;;;;;;23.07;17.33;;;-0.90;99.90;;;;;;2624777;47;20518;-83
2022/01/11 05:15:25;;;;;;;27.37;17.50;;;-1.20;99.90;;;;;;2624817;47;20386;-82
2022/01/11 05:17:52;;;;;;;30.87;18.27;;;-1.40;99.90;;;;;;2624871;47;20407;-81
2022/01/11 05:20:19;;;;;;;27.60;16.53;;;-1.30;99.90;;;;;;2624464;47;20384;-81
2022/01/11 05:22:45;;;;;;;26.27;16.77;;;-1.40;99.90;;;;;;2624908;47;20410;-81
2022/01/11 05:25:14;;;;;;;28.87;18.30;;;-1.50;99.90;;;;;;2624990;46;20368;-83
2022/01/11 05:27:40;;;;;;;31.57;17.10;;;-1.70;99.90;;;;;;2625122;47;20438;-81
2022/01/11 05:30:08;;;;;;;23.97;16.90;;;-1.80;99.90;;;;;;2626163;47;20936;-82
2022/01/11 05:32:35;;;;;;;31.43;19.10;;;-1.70;99.90;;;;;;2625533;47;20350;-82
2022/01/11 05:35:06;;;;;;;29.90;18.03;;;-1.60;99.90;;;;;;2624814;47;20367;-82
2022/01/11 05:37:32;;;;;;;25.53;15.07;;;-1.50;99.90;;;;;;2629641;39;20797;-82
2022/01/11 05:39:59;;;;;;;27.50;16.70;;;-1.80;99.90;;;;;;2624120;46;20397;-82
2022/01/11 05:42:26;;;;;;;27.47;15.53;;;-1.80;99.90;;;;;;2624465;47;20943;-82
2022/01/11 05:44:54;;;;;;;24.87;16.63;;;-1.70;99.90;;;;;;2625432;47;20377;-82
2022/01/11 05:47:22;;;;;;;30.63;19.20;;;-2.10;99.90;;;;;;2624772;47;20407;-83
2022/01/11 05:49:49;;;;;;;25.57;18.37;;;-1.80;99.90;;;;;;2625230;39;20887;-82
2022/01/11 05:52:15;;;;;;;31.97;16.40;;;-1.80;99.90;;;;;;2624861;47;20382;-83
2022/01/11 05:54:41;;;;;;;28.30;17.70;;;-1.60;99.90;;;;;;2626218;39;20770;-81
2022/01/11 05:57:08;;;;;;;24.10;15.20;;;-2.00;99.90;;;;;;2624826;47;21015;-83
2022/01/11 05:59:34;;;;;;;24.43;17.30;;;-1.60;99.90;;;;;;2624667;47;20377;-82
2022/01/11 06:01:59;;;;;;;27.43;16.97;;;-1.80;99.90;;;;;;2624726;47;20364;-83
2022/01/11 06:04:26;;;;;;;27.07;16.20;;;-1.70;99.90;;;;;;2624924;47;20366;-84
2022/01/11 06:06:52;;;;;;;32.23;16.10;;;-2.00;99.90;;;;;;2624340;47;20357;-80
2022/01/11 06:09:18;;;;;;;26.83;17.63;;;-2.00;99.90;;;;;;2624245;47;20393;-82
2022/01/11 06:11:44;;;;;;;26.60;16.67;;;-1.70;99.90;;;;;;2624231;47;20404;-82
2022/01/11 06:14:10;;;;;;;22.93;15.60;;;-1.50;99.90;;;;;;2624661;47;20974;-81
2022/01/11 06:16:36;;;;;;;35.93;19.20;;;-1.60;99.90;;;;;;2623942;47;20346;-81
2022/01/11 06:19:03;;;;;;;36.47;18.90;;;-1.70;99.90;;;;;;2624676;47;20458;-82
2022/01/11 06:21:43;;;;;;;29.93;16.40;;;-1.80;99.90;;;;;;2624584;47;20449;-82
2022/01/11 06:24:09;;;;;;;29.10;17.13;;;-1.70;99.90;;;;;;2624538;47;20369;-81
2022/01/11 06:26:35;;;;;;;29.33;18.37;;;-1.70;99.90;;;;;;2623898;54;20412;-82
2022/01/11 06:29:02;;;;;;;33.53;18.83;;;-1.90;99.90;;;;;;2623299;47;20425;-81
2022/01/11 06:31:30;;;;;;;33.87;18.50;;;-2.00;99.90;;;;;;2624494;47;20393;-82
2022/01/11 06:33:56;;;;;;;38.80;23.70;;;-2.30;99.90;;;;;;2623334;47;20382;-82
2022/01/11 06:36:22;;;;;;;31.50;19.80;;;-2.10;99.90;;;;;;2623703;54;20223;-81
2022/01/11 06:38:49;;;;;;;32.87;19.93;;;-2.20;99.90;;;;;;2624128;47;20815;-82
2022/01/11 06:41:21;;;;;;;34.80;18.40;;;-2.20;99.90;;;;;;2624218;47;20390;-82
2022/01/11 06:43:48;;;;;;;23.40;16.70;;;-2.00;99.90;;;;;;2624504;47;20382;-82
2022/01/11 06:46:14;;;;;;;32.93;17.80;;;-2.00;99.90;;;;;;2624833;46;20350;-81
2022/01/11 06:48:40;;;;;;;29.30;17.50;;;-1.90;99.90;;;;;;2624985;47;20353;-82
2022/01/11 06:51:08;;;;;;;26.73;18.10;;;-2.10;99.90;;;;;;2624680;47;20369;-81
2022/01/11 06:53:42;;;;;;;30.27;18.63;;;-2.20;99.90;;;;;;2624847;39;20862;-82
2022/01/11 06:56:07;;;;;;;21.70;16.53;;;-2.10;99.90;;;;;;2623287;47;20383;-82
2022/01/11 06:58:35;;;;;;;29.63;16.73;;;-2.20;99.90;;;;;;2623689;47;20466;-81
2022/01/11 07:01:01;;;;;;;22.80;16.33;;;-2.50;99.90;;;;;;2623599;47;20407;-81
2022/01/11 07:03:28;;;;;;;30.43;18.43;;;-2.50;99.90;;;;;;2624109;39;20811;-82
2022/01/11 07:06:18;;;;;;;19.90;14.70;;;-2.30;99.90;;;;;;2624037;47;20358;-80
2022/01/11 07:08:44;;;;;;;27.53;17.47;;;-2.30;99.90;;;;;;2623949;47;20362;-82
2022/01/11 07:11:12;;;;;;;33.53;18.50;;;-2.10;99.90;;;;;;2623762;47;20380;-81
2022/01/11 07:13:38;;;;;;;27.13;17.80;;;-2.20;99.90;;;;;;2624260;31;20830;-82
2022/01/11 07:16:05;;;;;;;33.97;19.07;;;-2.20;99.90;;;;;;2623580;47;20378;-82
2022/01/11 07:18:31;;;;;;;29.57;16.73;;;-2.40;99.90;;;;;;2624390;39;20810;-82
2022/01/11 07:21:02;;;;;;;28.20;18.03;;;-2.40;99.90;;;;;;2623808;47;20556;-82
2022/01/11 07:23:30;;;;;;;31.50;17.10;;;-2.10;99.90;;;;;;2624710;47;20430;-81
2022/01/11 07:25:56;;;;;;;30.17;17.40;;;-2.10;99.90;;;;;;2625542;46;20375;-81
2022/01/11 07:28:26;;;;;;;28.47;16.40;;;-2.20;99.90;;;;;;2625068;47;20391;-82
2022/01/11 07:30:52;;;;;;;25.97;16.90;;;-2.10;99.90;;;;;;2625521;46;21747;-81
2022/01/11 07:33:18;;;;;;;26.00;18.50;;;-2.30;99.90;;;;;;2625247;47;20391;-81
2022/01/11 07:35:49;;;;;;;31.20;17.20;;;-2.30;99.90;;;;;;2626296;31;20835;-82
2022/01/11 07:38:18;;;;;;;32.40;21.57;;;-2.20;99.90;;;;;;2624903;47;20378;-81
2022/01/11 07:40:44;;;;;;;35.50;21.17;;;-2.00;99.90;;;;;;2625907;39;21232;-82
2022/01/11 07:43:36;;;;;;;44.70;25.47;;;-2.30;99.90;;;;;;2627676;39;20776;-82
2022/01/11 07:46:12;;;;;;;34.60;20.10;;;-2.50;99.90;;;;;;2625191;46;20986;-81
2022/01/11 07:48:44;;;;;;;35.10;21.33;;;-2.50;99.90;;;;;;2624690;54;20511;-81
2022/01/11 07:51:10;;;;;;;29.73;19.73;;;-2.40;99.90;;;;;;2625017;47;20362;-82
2022/01/11 07:53:36;;;;;;;36.87;19.80;;;-2.40;99.90;;;;;;2624917;46;20425;-82
2022/01/11 07:56:07;;;;;;;37.77;20.20;;;-2.00;99.90;;;;;;2624903;47;20380;-81
2022/01/11 07:58:34;;;;;;;44.57;19.57;;;-1.80;99.90;;;;;;2624473;54;20395;-80
2022/01/11 08:01:00;;;;;;;43.33;20.90;;;-1.90;99.90;;;;;;2624202;54;20390;-81
2022/01/11 08:03:37;;;;;;;29.80;19.37;;;-1.60;99.90;;;;;;2624525;47;20349;-82
2022/01/11 08:06:18;;;;;;;42.03;21.23;;;-1.50;99.90;;;;;;2624387;46;20438;-81
2022/01/11 08:16:06;;;;;;;26.80;16.80;;;-1.60;99.90;;;;;;2622284;54;20466;-82
2022/01/11 08:18:33;;;;;;;23.90;17.87;;;-1.80;99.90;;;;;;2621986;47;20395;-82
2022/01/11 08:21:00;;;;;;;29.00;18.07;;;-2.00;99.90;;;;;;2622302;46;20565;-83
2022/01/11 08:23:26;;;;;;;30.97;18.57;;;-2.10;99.90;;;;;;2622204;47;20390;-82
2022/01/11 08:25:53;;;;;;;34.00;18.30;;;-1.60;99.90;;;;;;2621929;47;20381;-81
2022/01/11 08:28:19;;;;;;;28.97;17.97;;;-1.20;99.90;;;;;;2621940;47;20359;-81
2022/01/11 08:30:53;;;;;;;27.00;17.90;;;-0.90;99.90;;;;;;2621765;47;20512;-82
2022/01/11 08:33:19;;;;;;;30.67;18.67;;;0.10;99.90;;;;;;2621721;47;20394;-81
2022/01/11 08:35:45;;;;;;;29.37;20.97;;;1.50;99.90;;;;;;2622369;47;20356;-83
2022/01/11 08:38:14;;;;;;;33.27;19.73;;;2.70;99.90;;;;;;2622018;47;20383;-82
2022/01/11 08:40:42;;;;;;;28.67;19.00;;;3.80;99.90;;;;;;2621187;47;20384;-82
2022/01/11 08:43:08;;;;;;;24.60;19.63;;;4.40;99.90;;;;;;2621501;47;20394;-83
2022/01/11 08:45:38;;;;;;;27.10;19.20;;;4.40;99.90;;;;;;2621069;47;20352;-82
2022/01/11 08:48:09;;;;;;;25.87;19.60;;;4.00;99.90;;;;;;2621030;46;20520;-82
2022/01/11 08:50:42;;;;;;;34.73;20.00;;;3.80;99.90;;;;;;2620955;47;20402;-81
2022/01/11 08:53:09;;;;;;;28.83;20.40;;;3.50;99.90;;;;;;2620667;47;20395;-81
2022/01/11 08:55:36;;;;;;;31.93;19.33;;;3.60;99.90;;;;;;2620777;47;20396;-82
2022/01/11 08:58:03;;;;;;;32.73;19.80;;;3.80;99.90;;;;;;2620132;46;20383;-81
2022/01/11 09:00:29;;;;;;;31.30;22.20;;;3.60;99.90;;;;;;2620641;47;20406;-82
2022/01/11 09:03:02;;;;;;;31.13;22.03;;;3.90;99.90;;;;;;2620445;47;20411;-82
2022/01/11 09:05:33;;;;;;;33.70;23.60;;;4.40;99.90;;;;;;2620435;47;20420;-81
2022/01/11 09:08:03;;;;;;;29.20;20.77;;;4.90;99.90;;;;;;2620590;47;20446;-81
2022/01/11 09:10:28;;;;;;;29.20;20.40;;;4.50;99.90;;;;;;2620447;47;20945;-82
2022/01/11 09:12:55;;;;;;;30.53;22.73;;;4.30;99.90;;;;;;2621857;47;21659;-82
2022/01/11 09:15:21;;;;;;;30.00;22.33;;;4.80;99.90;;;;;;2623335;47;20428;-82
2022/01/11 09:17:48;;;;;;;30.93;22.23;;;5.60;99.90;;;;;;2622924;47;20384;-82
2022/01/11 09:20:17;;;;;;;31.53;22.83;;;6.10;99.90;;;;;;2622571;39;20780;-82
2022/01/11 09:22:45;;;;;;;36.33;22.43;;;6.00;99.90;;;;;;2621203;47;21042;-83
2022/01/11 09:25:12;;;;;;;37.03;25.40;;;5.90;99.90;;;;;;2622040;47;20392;-83
2022/01/11 09:27:46;;;;;;;32.83;25.17;;;5.80;99.90;;;;;;2622019;47;20376;-82
2022/01/11 09:30:15;;;;;;;34.77;22.63;;;5.80;99.90;;;;;;2622203;46;20429;-83
2022/01/11 09:32:43;;;;;;;28.43;21.47;;;6.00;99.90;;;;;;2623205;47;20390;-82
2022/01/11 09:35:36;;;;;;;37.10;23.77;;;5.70;99.90;;;;;;2620825;47;20387;-80
2022/01/11 09:38:24;;;;;;;28.63;21.43;;;5.80;99.90;;;;;;2620701;47;20380;-81
2022/01/11 09:41:25;;;;;;;28.10;19.00;;;6.10;99.90;;;;;;2621302;47;20426;-81
2022/01/11 09:43:54;;;;;;;32.87;23.47;;;6.00;99.90;;;;;;2619633;47;20414;-80
2022/01/11 09:46:25;;;;;;;37.53;23.70;;;5.90;99.90;;;;;;2624797;54;20384;-82
2022/01/11 09:48:55;;;;;;;36.87;23.80;;;6.60;99.90;;;;;;2623550;47;20423;-81
2022/01/11 09:51:24;;;;;;;29.77;21.13;;;7.50;99.90;;;;;;2619675;47;20495;-81
2022/01/11 09:53:52;;;;;;;30.63;21.90;;;8.90;99.90;;;;;;2618904;47;20395;-81
2022/01/11 09:56:22;;;;;;;24.90;18.27;;;10.00;99.90;;;;;;2618958;54;20435;-79
2022/01/11 09:58:50;;;;;;;26.37;19.20;;;11.50;94.00;;;;;;2618608;47;20437;-81
2022/01/11 10:02:00;;;;;;;27.50;18.03;;;12.90;90.90;;;;;;2618550;54;20443;-82
2022/01/11 10:05:05;;;;;;;32.33;20.40;;;14.50;63.40;;;;;;2618079;47;20414;-82
2022/01/11 10:08:19;;;;;;;26.50;17.90;;;15.50;58.60;;;;;;2617650;54;20991;-82
2022/01/11 10:11:13;;;;;;;25.33;17.33;;;16.60;46.20;;;;;;2617811;47;20437;-81
2022/01/11 10:13:41;;;;;;;24.73;17.17;;;17.40;30.30;;;;;;2617733;47;20430;-81
2022/01/11 10:16:28;;;;;;;23.17;17.30;;;17.90;33.90;;;;;;2617714;47;20403;-80
2022/01/11 10:18:58;;;;;;;23.23;16.90;;;18.50;26.70;;;;;;2617448;47;20423;-80
2022/01/11 10:21:45;;;;;;;24.87;17.27;;;18.80;28.60;;;;;;2617661;54;21000;-79
2022/01/11 10:24:35;;;;;;;21.00;17.00;;;17.80;26.60;;;;;;2618016;39;20806;-80
2022/01/11 10:27:36;;;;;;;27.93;17.87;;;18.00;27.00;;;;;;2617276;47;20415;-79
2022/01/11 10:30:09;;;;;;;21.50;16.17;;;17.10;27.70;;;;;;2617694;54;20431;-78
2022/01/11 10:32:48;;;;;;;25.10;17.53;;;16.80;27.30;;;;;;2617469;47;20462;-78
2022/01/11 10:35:28;;;;;;;29.00;18.17;;;17.00;28.20;;;;;;2617779;47;20417;-80
2022/01/11 10:38:26;;;;;;;23.40;16.87;;;16.60;27.00;;;;;;2617132;47;20457;-80
2022/01/11 10:41:38;;;;;;;30.60;18.90;;;17.60;27.10;;;;;;2616947;51;20404;-80
2022/01/11 10:44:04;;;;;;;24.93;16.70;;;17.70;24.90;;;;;;2617324;47;20469;-79
2022/01/11 10:47:05;;;;;;;23.97;16.00;;;17.00;27.40;;;;;;2617606;39;20988;-79
2022/01/11 10:50:00;;;;;;;23.30;16.70;;;17.90;25.10;;;;;;2617289;47;20502;-79
2022/01/11 10:52:31;;;;;;;23.80;17.23;;;17.70;24.60;;;;;;2617185;47;20416;-80
2022/01/11 10:55:15;;;;;;;22.60;16.33;;;18.30;26.30;;;;;;2617082;46;20435;-80
2022/01/11 10:58:07;;;;;;;20.80;15.90;;;19.20;23.90;;;;;;2616938;47;20427;-80
2022/01/11 11:01:11;;;;;;;22.37;17.03;;;19.00;23.10;;;;;;2616785;47;20403;-78
2022/01/11 11:03:39;;;;;;;30.80;21.80;;;18.20;23.90;;;;;;2616764;47;20966;-79
2022/01/11 11:06:35;;;;;;;20.57;17.73;;;18.20;25.30;;;;;;2616806;51;20415;-79
2022/01/11 11:09:16;;;;;;;25.50;18.60;;;18.90;23.20;;;;;;2616780;47;20507;-79
2022/01/11 11:12:13;;;;;;;23.37;16.43;;;18.30;24.00;;;;;;2616727;47;20434;-80
2022/01/11 11:15:02;;;;;;;18.33;14.27;;;18.10;24.70;;;;;;2616936;47;20415;-79
2022/01/11 11:17:37;;;;;;;22.03;15.53;;;17.40;24.80;;;;;;2616842;47;20415;-80
2022/01/11 11:20:26;;;;;;;24.87;16.57;;;16.40;27.50;;;;;;2616881;54;20419;-79
2022/01/11 11:22:52;;;;;;;24.53;16.40;;;18.40;26.20;;;;;;2616552;47;20439;-80
2022/01/11 11:25:19;;;;;;;24.80;17.67;;;18.50;24.00;;;;;;2616477;47;20993;-80
2022/01/11 11:28:12;;;;;;;27.77;17.80;;;18.20;25.90;;;;;;2616764;47;20407;-80
2022/01/11 11:31:05;;;;;;;23.23;16.63;;;17.60;24.90;;;;;;2617539;47;20991;-80
2022/01/11 11:33:31;;;;;;;24.13;17.33;;;18.50;24.90;;;;;;2617732;47;20415;-81
2022/01/11 11:35:57;;;;;;;21.67;16.87;;;19.50;23.20;;;;;;2617460;47;20430;-80
2022/01/11 11:39:04;;;;;;;24.47;18.13;;;19.70;22.40;;;;;;2618023;39;20884;-80
2022/01/11 11:41:33;;;;;;;21.77;16.57;;;20.80;21.90;;;;;;2617722;39;20878;-79
2022/01/11 11:44:08;;;;;;;21.20;16.70;;;21.80;21.40;;;;;;2617579;47;20404;-80
2022/01/11 11:47:01;;;;;;;18.70;14.83;;;22.90;20.70;;;;;;2617049;54;20403;-80
2022/01/11 11:49:48;;;;;;;18.50;15.97;;;22.70;20.10;;;;;;2619851;54;20427;-80
2022/01/11 11:52:39;;;;;;;20.97;14.90;;;22.10;20.30;;;;;;2618705;47;20454;-79
2022/01/11 11:55:25;;;;;;;18.97;13.27;;;19.40;24.00;;;;;;2619437;47;20406;-79
2022/01/11 11:58:01;;;;;;;20.47;14.40;;;19.20;25.20;;;;;;2621156;47;21001;-80
2022/01/11 12:00:56;;;;;;;16.93;12.40;;;18.70;25.10;;;;;;2621496;47;20449;-79
2022/01/11 12:03:26;;;;;;;18.03;13.10;;;16.90;27.40;;;;;;2622007;39;20811;-80
2022/01/11 12:06:28;;;;;;;17.03;13.30;;;18.50;25.50;;;;;;2621747;46;20396;-81
2022/01/11 12:09:32;;;;;;;17.90;14.30;;;19.00;25.10;;;;;;2620058;46;20416;-80
2022/01/11 12:12:00;;;;;;;17.23;12.70;;;20.40;23.50;;;;;;2618455;47;20415;-79
2022/01/11 12:14:36;;;;;;;16.20;11.90;;;17.80;27.00;;;;;;2617596;47;20472;-79
2022/01/11 12:17:22;;;;;;;16.33;10.50;;;17.70;27.20;;;;;;2618189;39;20776;-79
2022/01/11 12:20:36;;;;;;;12.87;10.30;;;15.70;32.90;;;;;;2617719;54;20384;-80
2022/01/11 12:23:02;;;;;;;11.23;7.13;;;14.20;39.60;;;;;;2617456;54;20423;-80
2022/01/11 12:25:32;;;;;;;10.30;8.50;;;15.50;33.80;;;;;;2617702;54;20418;-78
2022/01/11 12:28:06;;;;;;;11.07;8.60;;;15.10;35.00;;;;;;2617736;54;20672;-78
2022/01/11 12:30:33;;;;;;;14.50;8.60;;;16.00;31.70;;;;;;2617567;47;20409;-79
2022/01/11 12:33:12;;;;;;;15.50;8.17;;;15.00;35.60;;;;;;2617460;46;20996;-79
2022/01/11 12:35:54;;;;;;;10.93;7.47;;;15.10;34.00;;;;;;2617649;54;20414;-79
2022/01/11 12:38:23;;;;;;;12.30;8.47;;;14.80;37.90;;;;;;2617601;47;20431;-78
2022/01/11 12:40:49;;;;;;;11.57;8.23;;;16.10;33.40;;;;;;2617426;47;21399;-79
2022/01/11 12:43:56;;;;;;;10.90;8.73;;;17.00;29.50;;;;;;2617305;54;20407;-78
2022/01/11 12:46:59;;;;;;;13.87;8.37;;;17.50;29.20;;;;;;2617597;39;20884;-80
2022/01/11 12:49:28;;;;;;;10.00;7.67;;;19.30;25.20;;;;;;2617275;47;20427;-79
2022/01/11 12:52:09;;;;;;;11.07;7.33;;;18.90;25.10;;;;;;2617215;47;20450;-80
2022/01/11 12:54:41;;;;;;;12.03;7.53;;;19.20;25.00;;;;;;2616314;54;20406;-79
2022/01/11 12:57:12;;;;;;;14.00;7.30;;;19.50;24.30;;;;;;2616700;47;20404;-79
2022/01/11 12:59:41;;;;;;;14.07;6.97;;;19.10;25.30;;;;;;2616552;47;20424;-77
2022/01/11 13:02:30;;;;;;;13.67;8.10;;;17.40;28.00;;;;;;2616669;47;20411;-78
2022/01/11 13:05:04;;;;;;;13.23;8.33;;;16.70;29.50;;;;;;2617106;47;20507;-80